Time;durP1;ratioP1;P1;durP2;ratioP2;P2;SDS_P1;SDS_P2;PMS_P1;PMS_P2;Temp;Humidity;BMP_temperature;BMP_pressure;BME280_temperature;BME280_humidity;BME280_pressure;Samples;Min_cycle;Max_cycle;Signal;HPM_P1;HPM_P2
2023/08/13 00:02:37;;;;;;;9.80;3.20;;;20.00;99.90;;;;;;5072300;28;20465;-76
2023/08/13 00:05:23;;;;;;;7.13;3.60;;;19.90;99.90;;;;;;5075936;28;20436;-76
2023/08/13 00:08:10;;;;;;;4.90;3.30;;;19.90;99.90;;;;;;5081046;28;20576;-76
2023/08/13 00:10:55;;;;;;;9.73;3.47;;;19.90;99.90;;;;;;5075913;28;20823;-76
2023/08/13 00:13:41;;;;;;;12.73;3.33;;;19.80;99.90;;;;;;5076170;28;20419;-75
2023/08/13 00:16:26;;;;;;;6.43;2.90;;;19.80;99.90;;;;;;5073979;28;20596;-76
2023/08/13 00:19:12;;;;;;;8.30;3.37;;;19.80;99.90;;;;;;5072052;28;20452;-76
2023/08/13 00:21:58;;;;;;;9.33;3.07;;;19.80;99.90;;;;;;5075191;28;20606;-77
2023/08/13 00:24:45;;;;;;;12.70;2.87;;;19.80;99.90;;;;;;5072710;28;20553;-76
2023/08/13 00:27:30;;;;;;;13.43;3.30;;;19.80;99.90;;;;;;5071509;28;20966;-76
2023/08/13 00:30:16;;;;;;;4.57;2.80;;;19.80;99.90;;;;;;5075979;28;20411;-76
2023/08/13 00:33:01;;;;;;;7.80;3.23;;;19.80;99.90;;;;;;5079972;28;20453;-76
2023/08/13 00:35:47;;;;;;;21.33;3.27;;;19.80;99.90;;;;;;5071996;28;20445;-76
2023/08/13 00:38:32;;;;;;;6.00;2.53;;;19.90;99.90;;;;;;5077633;28;20476;-76
2023/08/13 00:41:19;;;;;;;8.77;3.13;;;19.90;99.90;;;;;;5080676;28;20465;-76
2023/08/13 00:44:05;;;;;;;7.47;3.73;;;19.90;99.90;;;;;;5079272;28;20584;-76
2023/08/13 00:46:51;;;;;;;9.20;3.10;;;19.90;99.90;;;;;;5082498;28;20446;-76
2023/08/13 00:49:36;;;;;;;6.37;2.93;;;19.90;99.90;;;;;;5077705;28;20465;-76
2023/08/13 00:52:22;;;;;;;7.73;2.73;;;19.90;99.90;;;;;;5074459;28;20986;-76
2023/08/13 00:55:09;;;;;;;7.50;3.07;;;19.90;99.90;;;;;;5077976;28;20453;-76
2023/08/13 00:57:56;;;;;;;8.87;3.00;;;19.80;99.90;;;;;;5074731;28;20879;-76
2023/08/13 01:00:41;;;;;;;9.97;3.23;;;19.80;99.90;;;;;;5071191;28;21548;-76
2023/08/13 01:03:26;;;;;;;7.93;3.03;;;19.80;99.90;;;;;;5075553;28;20567;-76
2023/08/13 01:06:17;;;;;;;12.13;2.90;;;19.70;99.90;;;;;;5076748;28;20809;-76
2023/08/13 01:09:09;;;;;;;9.33;2.97;;;19.80;99.90;;;;;;5070470;28;20479;-76
2023/08/13 01:12:03;;;;;;;9.13;3.00;;;19.80;99.90;;;;;;5072955;28;20444;-76
2023/08/13 01:14:58;;;;;;;4.70;2.53;;;19.90;99.90;;;;;;5078513;28;20527;-76
2023/08/13 01:17:45;;;;;;;3.97;2.30;;;19.90;99.90;;;;;;5075925;28;20524;-76
2023/08/13 01:20:32;;;;;;;9.50;3.23;;;19.90;99.90;;;;;;5069789;28;20412;-76
2023/08/13 01:23:18;;;;;;;7.20;3.10;;;19.90;99.90;;;;;;5076977;28;20423;-76
2023/08/13 01:26:13;;;;;;;10.73;3.37;;;20.00;99.90;;;;;;5075588;28;21128;-76
2023/08/13 01:29:06;;;;;;;8.40;3.17;;;20.00;99.90;;;;;;5082594;28;20438;-76
2023/08/13 01:31:57;;;;;;;4.30;2.60;;;20.00;99.90;;;;;;5070062;28;20591;-76
2023/08/13 01:34:44;;;;;;;10.97;2.90;;;20.00;99.90;;;;;;5079415;28;20552;-76
2023/08/13 01:37:30;;;;;;;6.43;3.40;;;20.00;99.90;;;;;;5072750;28;20471;-76
2023/08/13 01:40:17;;;;;;;11.57;3.07;;;20.00;99.90;;;;;;5076680;28;20556;-77
2023/08/13 01:43:02;;;;;;;5.63;2.77;;;20.00;99.90;;;;;;5076373;28;20792;-76
2023/08/13 01:45:48;;;;;;;14.83;3.40;;;20.00;99.90;;;;;;5076954;28;20519;-76
2023/08/13 01:48:33;;;;;;;12.17;3.00;;;20.00;99.90;;;;;;5081092;28;20449;-76
2023/08/13 01:51:20;;;;;;;3.60;2.10;;;20.00;99.90;;;;;;5078349;28;20843;-76
2023/08/13 01:54:06;;;;;;;16.90;3.07;;;20.00;99.90;;;;;;5079248;28;20809;-77
2023/08/13 01:56:53;;;;;;;11.47;4.87;;;20.00;99.90;;;;;;5076799;28;20653;-76
2023/08/13 01:59:38;;;;;;;11.43;3.40;;;19.90;99.90;;;;;;5080404;28;20580;-76
2023/08/13 02:02:24;;;;;;;6.63;3.33;;;19.90;99.90;;;;;;5071481;28;20494;-77
2023/08/13 02:05:09;;;;;;;12.73;2.83;;;19.80;99.90;;;;;;5074319;28;22978;-76
2023/08/13 02:07:55;;;;;;;5.70;2.60;;;19.80;99.90;;;;;;5070143;28;20457;-77
2023/08/13 02:10:40;;;;;;;5.63;2.60;;;19.80;99.90;;;;;;5075996;28;20538;-76
2023/08/13 02:13:27;;;;;;;5.53;2.60;;;19.70;99.90;;;;;;5079318;28;21034;-76
2023/08/13 02:16:13;;;;;;;20.97;2.97;;;19.70;99.90;;;;;;5075785;28;20556;-76
2023/08/13 02:18:58;;;;;;;8.50;2.73;;;19.70;99.90;;;;;;5078993;28;20550;-76
2023/08/13 02:21:44;;;;;;;7.70;2.43;;;19.70;99.90;;;;;;5079918;28;20460;-76
2023/08/13 02:24:29;;;;;;;2.87;2.27;;;19.70;99.90;;;;;;5077370;28;20515;-76
2023/08/13 02:27:15;;;;;;;5.83;2.77;;;19.70;99.90;;;;;;5081081;28;20417;-76
2023/08/13 02:30:02;;;;;;;8.97;3.07;;;19.60;99.90;;;;;;5072144;28;20530;-76
2023/08/13 02:32:47;;;;;;;7.10;3.83;;;19.70;99.90;;;;;;5073479;28;20419;-76
2023/08/13 02:35:33;;;;;;;6.13;2.80;;;19.70;99.90;;;;;;5078805;28;20519;-76
2023/08/13 02:38:19;;;;;;;8.67;3.10;;;19.80;99.90;;;;;;5077864;28;20554;-76
2023/08/13 02:41:04;;;;;;;9.80;3.03;;;19.80;99.90;;;;;;5077638;28;20505;-76
2023/08/13 02:43:52;;;;;;;3.40;2.30;;;19.80;99.90;;;;;;5077298;28;20427;-77
2023/08/13 02:46:38;;;;;;;9.20;2.57;;;19.80;99.90;;;;;;5085985;28;20969;-76
2023/08/13 02:49:23;;;;;;;8.20;3.23;;;19.80;99.90;;;;;;5080184;28;20496;-75
2023/08/13 02:52:09;;;;;;;18.30;2.40;;;19.80;99.90;;;;;;5079957;28;20469;-75
2023/08/13 02:54:54;;;;;;;10.00;2.70;;;19.90;99.90;;;;;;5077089;28;20440;-75
2023/08/13 02:57:40;;;;;;;13.23;2.77;;;19.90;99.90;;;;;;5078672;28;20464;-76
2023/08/13 03:00:25;;;;;;;8.87;2.37;;;19.90;99.90;;;;;;5078424;28;20444;-76
2023/08/13 03:03:12;;;;;;;6.37;2.30;;;19.90;99.90;;;;;;5076991;28;20453;-76
2023/08/13 03:05:59;;;;;;;5.53;2.37;;;19.90;99.90;;;;;;5078416;28;21012;-75
2023/08/13 03:08:44;;;;;;;4.23;2.27;;;19.90;99.90;;;;;;5077233;28;20461;-76
2023/08/13 03:11:30;;;;;;;5.63;1.97;;;19.90;99.90;;;;;;5079759;28;20487;-75
2023/08/13 03:14:16;;;;;;;4.30;2.37;;;19.90;99.90;;;;;;5082409;28;20460;-76
2023/08/13 03:17:01;;;;;;;4.97;2.50;;;19.80;99.90;;;;;;5081100;28;20440;-76
2023/08/13 03:19:48;;;;;;;3.83;2.80;;;19.80;99.90;;;;;;5077194;28;20468;-76
2023/08/13 03:22:34;;;;;;;24.67;3.40;;;19.70;99.90;;;;;;5077293;28;20473;-76
2023/08/13 03:25:19;;;;;;;5.00;2.10;;;19.70;99.90;;;;;;5077007;28;20421;-76
2023/08/13 03:28:05;;;;;;;10.80;2.37;;;19.70;99.90;;;;;;5078162;28;20575;-76
2023/08/13 03:30:51;;;;;;;11.00;2.43;;;19.70;99.90;;;;;;5072543;28;20536;-76
2023/08/13 03:33:36;;;;;;;10.87;2.63;;;19.70;99.90;;;;;;5080984;28;20439;-75
2023/08/13 03:36:23;;;;;;;6.73;2.43;;;19.70;99.90;;;;;;5077746;28;20452;-75
2023/08/13 03:39:09;;;;;;;13.57;2.40;;;19.70;99.90;;;;;;5081088;28;20471;-75
2023/08/13 03:41:54;;;;;;;6.20;2.50;;;19.60;99.90;;;;;;5076679;28;20432;-75
2023/08/13 03:44:41;;;;;;;8.43;2.83;;;19.50;99.90;;;;;;5077066;28;21087;-75
2023/08/13 03:47:27;;;;;;;7.30;2.63;;;19.50;99.90;;;;;;5073988;28;20972;-75
2023/08/13 03:50:12;;;;;;;4.73;2.20;;;19.50;99.90;;;;;;5075411;28;20444;-76
2023/08/13 03:52:59;;;;;;;2.80;2.30;;;19.50;99.90;;;;;;5076605;28;20442;-75
2023/08/13 03:55:44;;;;;;;6.90;2.90;;;19.40;99.90;;;;;;5081829;28;22359;-75
2023/08/13 03:58:31;;;;;;;4.90;2.30;;;19.40;99.90;;;;;;5078697;28;20472;-75
2023/08/13 04:01:16;;;;;;;5.30;2.63;;;19.40;99.90;;;;;;5072899;28;21009;-75
2023/08/13 04:04:02;;;;;;;13.40;2.53;;;19.40;99.90;;;;;;5078091;28;20503;-76
2023/08/13 04:06:47;;;;;;;4.03;2.60;;;19.30;99.90;;;;;;5078076;28;20451;-75
2023/08/13 04:09:35;;;;;;;10.53;2.87;;;19.30;99.90;;;;;;5079909;28;20494;-74
2023/08/13 04:12:20;;;;;;;5.70;2.53;;;19.30;99.90;;;;;;5078977;28;20476;-76
2023/08/13 04:15:07;;;;;;;3.00;2.37;;;19.30;99.90;;;;;;5075334;28;20580;-76
2023/08/13 04:17:52;;;;;;;9.67;3.23;;;19.20;99.90;;;;;;5073824;28;20490;-75
2023/08/13 04:20:39;;;;;;;22.00;3.90;;;19.20;99.90;;;;;;5068809;28;20874;-76
2023/08/13 04:23:25;;;;;;;7.30;3.20;;;19.20;99.90;;;;;;5077098;28;20448;-76
2023/08/13 04:26:12;;;;;;;11.70;3.10;;;19.20;99.90;;;;;;5075972;28;22648;-76
2023/08/13 04:28:57;;;;;;;6.03;3.03;;;19.30;99.90;;;;;;5074704;28;20966;-75
2023/08/13 04:31:42;;;;;;;16.30;3.37;;;19.30;99.90;;;;;;5076895;28;21047;-75
2023/08/13 04:34:28;;;;;;;11.33;3.10;;;19.20;99.90;;;;;;5074733;28;20493;-76
2023/08/13 04:37:14;;;;;;;11.33;2.93;;;19.30;99.90;;;;;;5074531;28;20456;-76
2023/08/13 04:39:59;;;;;;;5.37;2.40;;;19.30;99.90;;;;;;5069577;28;20476;-76
2023/08/13 04:42:46;;;;;;;3.80;1.83;;;19.30;99.90;;;;;;5081561;28;20444;-75
2023/08/13 04:45:31;;;;;;;4.87;2.60;;;19.30;99.90;;;;;;5073123;28;21008;-76
2023/08/13 04:48:19;;;;;;;5.20;2.30;;;19.30;99.90;;;;;;5077886;28;20460;-76
2023/08/13 04:51:04;;;;;;;9.40;2.83;;;19.30;99.90;;;;;;5077888;28;20456;-76
2023/08/13 04:53:50;;;;;;;2.80;1.70;;;19.30;99.90;;;;;;5077023;28;20452;-75
2023/08/13 04:56:35;;;;;;;7.50;2.70;;;19.40;99.90;;;;;;5074019;28;20433;-76
2023/08/13 04:59:22;;;;;;;5.73;2.13;;;19.40;99.90;;;;;;5074335;28;20437;-75
2023/08/13 05:02:07;;;;;;;12.40;2.30;;;19.40;99.90;;;;;;5074497;28;20452;-76
2023/08/13 05:04:53;;;;;;;7.73;2.00;;;19.40;99.90;;;;;;5073989;28;20423;-76
2023/08/13 05:07:38;;;;;;;3.17;2.37;;;19.40;99.90;;;;;;5076762;28;21044;-76
2023/08/13 05:10:24;;;;;;;5.80;2.40;;;19.40;99.90;;;;;;5081258;28;20924;-76
2023/08/13 05:13:10;;;;;;;5.13;1.87;;;19.50;99.90;;;;;;5073768;28;20445;-76
2023/08/13 05:15:56;;;;;;;5.17;2.37;;;19.50;99.90;;;;;;5078358;28;20793;-76
2023/08/13 05:18:42;;;;;;;6.53;2.50;;;19.50;99.90;;;;;;5075305;28;20498;-76
2023/08/13 05:21:27;;;;;;;4.00;2.80;;;19.60;99.90;;;;;;5074185;28;20488;-76
2023/08/13 05:24:13;;;;;;;4.07;2.33;;;19.60;99.90;;;;;;5070678;28;20981;-75
2023/08/13 05:26:58;;;;;;;7.30;2.27;;;19.60;99.90;;;;;;5071898;28;20419;-76
2023/08/13 05:29:44;;;;;;;8.60;2.87;;;19.70;99.90;;;;;;5069985;28;20424;-76
2023/08/13 05:32:31;;;;;;;10.07;3.10;;;19.60;99.90;;;;;;5079813;28;20530;-76
2023/08/13 05:35:16;;;;;;;2.80;2.03;;;19.70;99.90;;;;;;5077960;28;20535;-76
2023/08/13 05:38:02;;;;;;;3.30;2.87;;;19.70;99.90;;;;;;5075368;28;20427;-76
2023/08/13 05:40:48;;;;;;;7.73;3.10;;;19.70;99.90;;;;;;5080819;28;20487;-75
2023/08/13 05:43:33;;;;;;;5.90;2.60;;;19.80;99.90;;;;;;5073729;28;20581;-76
2023/08/13 05:46:19;;;;;;;3.30;2.60;;;19.80;99.90;;;;;;5079505;28;20440;-76
2023/08/13 05:49:06;;;;;;;8.23;2.90;;;19.90;99.90;;;;;;5075629;28;20596;-76
2023/08/13 05:51:51;;;;;;;6.73;5.20;;;19.90;99.90;;;;;;5078199;28;20461;-76
2023/08/13 05:54:37;;;;;;;7.07;2.40;;;19.90;99.90;;;;;;5084346;28;20444;-76
2023/08/13 05:57:22;;;;;;;10.30;3.10;;;19.90;99.90;;;;;;5081692;28;20584;-76
2023/08/13 06:00:10;;;;;;;7.80;3.37;;;19.90;99.90;;;;;;5086545;28;20470;-76
2023/08/13 06:02:55;;;;;;;7.77;2.70;;;20.00;99.90;;;;;;5080525;28;20450;-76
2023/08/13 06:05:42;;;;;;;7.53;3.83;;;20.00;99.90;;;;;;5080993;28;20415;-76
2023/08/13 06:08:28;;;;;;;4.40;3.10;;;20.10;99.90;;;;;;5085337;28;20456;-76
2023/08/13 06:11:13;;;;;;;7.00;2.90;;;20.10;99.90;;;;;;5079415;28;20531;-76
2023/08/13 06:13:59;;;;;;;11.73;3.10;;;20.20;99.90;;;;;;5075674;28;20825;-76
2023/08/13 06:16:44;;;;;;;3.57;3.10;;;20.20;99.90;;;;;;5080264;28;20449;-76
2023/08/13 06:19:30;;;;;;;5.57;3.20;;;20.30;99.90;;;;;;5078964;28;20484;-76
2023/08/13 06:22:18;;;;;;;7.23;3.40;;;20.30;99.90;;;;;;5083152;28;20454;-76
2023/08/13 06:25:03;;;;;;;8.40;3.63;;;20.40;99.90;;;;;;5073517;28;20541;-76
2023/08/13 06:27:48;;;;;;;5.63;3.50;;;20.50;99.90;;;;;;5080534;28;20436;-75
2023/08/13 06:30:33;;;;;;;4.20;3.70;;;20.60;99.90;;;;;;5077647;28;20822;-76
2023/08/13 06:33:19;;;;;;;8.00;2.87;;;20.60;99.90;;;;;;5075936;28;20460;-76
2023/08/13 06:36:05;;;;;;;4.97;3.23;;;20.70;99.90;;;;;;5077794;28;20965;-76
2023/08/13 06:38:51;;;;;;;6.27;4.13;;;20.80;99.90;;;;;;5084601;28;20453;-76
2023/08/13 06:41:37;;;;;;;6.10;3.70;;;20.80;99.90;;;;;;5073810;28;20472;-76
2023/08/13 06:44:22;;;;;;;13.27;4.40;;;20.90;99.90;;;;;;5081482;28;20446;-76
2023/08/13 06:47:08;;;;;;;5.50;4.20;;;21.00;99.90;;;;;;5077351;28;20571;-76
2023/08/13 06:49:53;;;;;;;5.07;4.50;;;21.00;99.90;;;;;;5080839;28;20513;-76
2023/08/13 06:52:39;;;;;;;4.13;3.73;;;21.00;99.90;;;;;;5077678;28;20456;-76
2023/08/13 06:55:26;;;;;;;6.27;4.00;;;21.00;99.90;;;;;;5083294;28;20586;-76
2023/08/13 06:58:11;;;;;;;6.17;4.80;;;21.10;99.90;;;;;;5076435;28;20445;-76
2023/08/13 07:00:57;;;;;;;7.70;3.80;;;21.20;99.90;;;;;;5078737;28;20448;-76
2023/08/13 07:03:44;;;;;;;5.80;3.70;;;21.30;99.90;;;;;;5081924;28;20916;-76
2023/08/13 07:06:29;;;;;;;6.50;3.60;;;21.40;99.90;;;;;;5073691;28;20448;-75
2023/08/13 07:09:15;;;;;;;3.50;2.93;;;21.40;99.90;;;;;;5078479;28;20465;-76
2023/08/13 07:12:02;;;;;;;6.80;3.53;;;21.40;99.90;;;;;;5072581;28;20577;-76
2023/08/13 07:14:47;;;;;;;3.90;2.83;;;21.40;99.90;;;;;;5079225;28;20452;-76
2023/08/13 07:17:33;;;;;;;6.13;3.10;;;21.40;99.90;;;;;;5075743;28;20996;-76
2023/08/13 07:20:18;;;;;;;4.40;3.03;;;21.50;99.90;;;;;;5078790;28;20477;-76
2023/08/13 07:23:04;;;;;;;5.30;3.07;;;21.50;99.90;;;;;;5077685;28;20454;-76
2023/08/13 07:25:50;;;;;;;6.03;3.80;;;21.50;99.90;;;;;;5076095;28;20453;-76
2023/08/13 07:28:40;;;;;;;5.93;4.00;;;21.50;99.90;;;;;;5079701;28;21014;-76
2023/08/13 07:31:25;;;;;;;5.20;3.57;;;21.50;99.90;;;;;;5072851;28;20457;-75
2023/08/13 07:34:11;;;;;;;5.40;3.43;;;21.60;99.90;;;;;;5075400;28;20473;-76
2023/08/13 07:36:57;;;;;;;6.57;4.10;;;21.60;99.90;;;;;;5084184;28;20450;-76
2023/08/13 07:39:42;;;;;;;4.50;3.57;;;21.70;99.90;;;;;;5078676;28;20520;-75
2023/08/13 07:42:27;;;;;;;6.47;3.40;;;21.80;99.90;;;;;;5076858;28;20462;-75
2023/08/13 07:45:14;;;;;;;6.27;3.20;;;21.80;99.90;;;;;;5072806;28;20445;-76
2023/08/13 07:48:00;;;;;;;6.23;3.10;;;21.90;99.90;;;;;;5076211;28;20469;-76
2023/08/13 07:50:46;;;;;;;4.20;3.30;;;22.00;99.90;;;;;;5083324;28;20820;-76
2023/08/13 07:53:32;;;;;;;3.67;2.50;;;22.10;99.90;;;;;;5084284;28;20849;-75
2023/08/13 07:56:17;;;;;;;3.53;2.50;;;22.20;99.90;;;;;;5078163;28;20452;-76
2023/08/13 07:59:04;;;;;;;6.23;3.40;;;22.20;99.90;;;;;;5078043;28;20419;-76
2023/08/13 08:01:51;;;;;;;6.57;3.40;;;22.30;99.90;;;;;;5074108;28;20461;-76
2023/08/13 08:04:37;;;;;;;6.93;3.23;;;22.10;99.90;;;;;;5082303;28;20404;-76
2023/08/13 08:07:22;;;;;;;3.67;3.10;;;22.10;99.90;;;;;;5082233;28;21014;-76
2023/08/13 08:10:09;;;;;;;4.17;3.07;;;22.20;99.90;;;;;;5081186;28;20441;-75
2023/08/13 08:12:54;;;;;;;3.87;2.50;;;22.30;99.90;;;;;;5081855;28;20450;-76
2023/08/13 08:15:40;;;;;;;5.50;3.10;;;22.30;99.90;;;;;;5078946;28;20434;-76
2023/08/13 08:18:29;;;;;;;5.20;2.57;;;22.40;99.90;;;;;;5083248;28;20588;-76
2023/08/13 08:21:14;;;;;;;3.90;2.83;;;22.50;99.90;;;;;;5078263;28;20464;-76
2023/08/13 08:24:00;;;;;;;5.73;2.80;;;22.60;99.90;;;;;;5078316;28;20450;-76
2023/08/13 08:26:46;;;;;;;4.80;2.73;;;22.60;99.90;;;;;;5082370;28;20412;-76
2023/08/13 08:29:31;;;;;;;3.63;2.40;;;22.60;99.90;;;;;;5080141;28;20442;-76
2023/08/13 08:32:17;;;;;;;4.30;2.70;;;22.60;99.90;;;;;;5076956;28;21132;-76
2023/08/13 08:35:05;;;;;;;4.00;2.17;;;22.50;99.90;;;;;;5078539;28;20487;-76
2023/08/13 08:37:50;;;;;;;5.13;2.80;;;22.70;99.90;;;;;;5076568;28;20576;-75
2023/08/13 08:40:36;;;;;;;7.90;2.67;;;22.70;99.90;;;;;;5078117;28;20477;-76
2023/08/13 08:43:23;;;;;;;4.90;2.20;;;22.70;99.90;;;;;;5076480;28;20438;-76
2023/08/13 08:46:12;;;;;;;5.27;1.73;;;22.70;99.90;;;;;;5083134;28;20416;-76
2023/08/13 08:49:00;;;;;;;6.63;2.57;;;22.80;99.90;;;;;;5076814;28;20466;-76
2023/08/13 08:51:48;;;;;;;7.47;3.10;;;22.80;99.90;;;;;;5080904;28;20440;-75
2023/08/13 08:54:38;;;;;;;5.73;2.63;;;23.00;99.90;;;;;;5081207;28;20465;-76
2023/08/13 08:57:23;;;;;;;4.53;2.20;;;23.10;99.90;;;;;;5083645;28;20446;-76
2023/08/13 09:00:10;;;;;;;3.47;2.00;;;23.20;99.90;;;;;;5076295;28;20502;-76
2023/08/13 09:02:55;;;;;;;4.77;2.40;;;23.20;99.90;;;;;;5079712;28;20918;-76
2023/08/13 09:05:43;;;;;;;4.53;2.43;;;23.30;99.90;;;;;;5075748;28;20520;-76
2023/08/13 09:08:29;;;;;;;6.90;3.37;;;23.40;99.90;;;;;;5078905;28;20970;-76
2023/08/13 09:11:15;;;;;;;5.30;2.83;;;23.40;99.90;;;;;;5080568;28;21124;-76
2023/08/13 09:14:00;;;;;;;4.57;2.20;;;23.50;99.90;;;;;;5077756;28;20445;-76
2023/08/13 09:16:46;;;;;;;3.30;2.00;;;23.40;99.90;;;;;;5076000;28;20482;-76
2023/08/13 09:19:33;;;;;;;6.83;2.30;;;23.40;99.90;;;;;;5075396;28;20961;-76
2023/08/13 09:22:18;;;;;;;5.50;2.07;;;23.40;99.90;;;;;;5079466;28;20595;-76
2023/08/13 09:25:06;;;;;;;5.47;2.07;;;23.50;99.90;;;;;;5079156;28;20475;-76
2023/08/13 09:27:52;;;;;;;4.37;2.03;;;23.50;99.90;;;;;;5074920;28;20453;-76
2023/08/13 09:30:37;;;;;;;4.90;2.23;;;23.60;99.90;;;;;;5075117;28;20437;-76
2023/08/13 09:33:23;;;;;;;9.57;2.70;;;23.50;99.90;;;;;;5078710;28;20441;-76
2023/08/13 09:36:08;;;;;;;6.43;2.10;;;23.60;99.90;;;;;;5082265;28;20458;-76
2023/08/13 09:38:54;;;;;;;4.10;1.97;;;23.50;99.90;;;;;;5072313;28;21023;-76
2023/08/13 09:41:41;;;;;;;7.53;2.50;;;23.60;99.90;;;;;;5072425;28;20595;-77
2023/08/13 09:44:27;;;;;;;5.53;2.50;;;23.50;99.90;;;;;;5071830;28;20419;-76
2023/08/13 09:47:17;;;;;;;2.60;1.77;;;23.60;99.90;;;;;;5077338;28;20591;-76
2023/08/13 09:50:04;;;;;;;4.23;2.30;;;23.60;99.90;;;;;;5073787;28;20454;-76
2023/08/13 09:52:50;;;;;;;6.57;2.40;;;23.60;99.90;;;;;;5074006;28;20443;-76
2023/08/13 09:55:40;;;;;;;4.00;2.37;;;23.50;99.90;;;;;;5074071;28;20443;-76
2023/08/13 09:58:29;;;;;;;6.57;2.63;;;23.60;99.90;;;;;;5075260;28;20455;-76
2023/08/13 10:01:15;;;;;;;3.70;1.90;;;23.60;99.90;;;;;;5077397;28;20493;-75
2023/08/13 10:04:01;;;;;;;13.03;2.67;;;23.60;99.90;;;;;;5076715;28;20441;-76
2023/08/13 10:06:49;;;;;;;4.93;2.40;;;23.70;99.90;;;;;;5072288;28;21024;-75
2023/08/13 10:09:36;;;;;;;5.33;2.37;;;23.70;99.90;;;;;;5074412;28;20459;-76
2023/08/13 10:12:22;;;;;;;4.53;2.10;;;23.80;99.90;;;;;;5072640;28;20609;-76
2023/08/13 10:15:10;;;;;;;8.80;2.47;;;23.80;99.90;;;;;;5077061;28;20473;-76
2023/08/13 10:17:56;;;;;;;4.07;2.30;;;23.90;99.90;;;;;;5075873;28;20450;-75
2023/08/13 10:20:44;;;;;;;4.50;2.40;;;24.00;99.90;;;;;;5073610;28;20491;-76
2023/08/13 10:23:29;;;;;;;5.87;2.80;;;24.10;99.90;;;;;;5074876;28;20449;-77
2023/08/13 10:26:15;;;;;;;4.50;2.33;;;24.10;99.90;;;;;;5073620;28;20457;-76
2023/08/13 10:29:01;;;;;;;4.20;2.63;;;24.20;99.90;;;;;;5076194;28;20581;-76
2023/08/13 10:31:55;;;;;;;5.80;2.40;;;24.20;99.90;;;;;;5077667;28;20461;-76
2023/08/13 10:34:41;;;;;;;5.97;2.10;;;24.20;99.90;;;;;;5074490;28;20451;-76
2023/08/13 10:37:31;;;;;;;7.27;1.97;;;24.30;99.90;;;;;;5075338;28;20528;-76
2023/08/13 10:40:18;;;;;;;15.10;2.03;;;24.30;99.90;;;;;;5077940;28;20457;-76
2023/08/13 10:43:04;;;;;;;4.70;2.60;;;24.20;99.90;;;;;;5077411;28;20815;-75
2023/08/13 10:45:50;;;;;;;4.93;2.10;;;24.20;99.90;;;;;;5079405;28;20447;-76
2023/08/13 10:48:37;;;;;;;3.07;1.80;;;24.30;99.90;;;;;;5076512;28;20495;-75
2023/08/13 10:51:24;;;;;;;3.30;1.70;;;24.40;99.90;;;;;;5078827;28;20988;-75
2023/08/13 10:54:10;;;;;;;8.93;2.07;;;24.40;99.90;;;;;;5081275;28;20417;-76
2023/08/13 10:56:58;;;;;;;5.17;1.83;;;24.40;99.90;;;;;;5081573;28;20442;-75
2023/08/13 10:59:45;;;;;;;4.07;1.90;;;24.40;99.30;;;;;;5080459;28;20455;-76
2023/08/13 11:02:31;;;;;;;4.77;2.23;;;24.30;99.90;;;;;;5080137;28;20536;-75
2023/08/13 11:05:18;;;;;;;4.80;2.20;;;24.30;99.90;;;;;;5079297;28;20434;-76
2023/08/13 11:08:06;;;;;;;4.57;2.23;;;24.30;99.90;;;;;;5083535;28;20466;-75
2023/08/13 11:10:52;;;;;;;5.33;1.70;;;24.40;99.90;;;;;;5081436;28;21039;-75
2023/08/13 11:13:38;;;;;;;4.63;2.00;;;24.50;99.90;;;;;;5077906;28;20431;-76
2023/08/13 11:16:28;;;;;;;8.10;2.50;;;24.70;99.90;;;;;;5091136;22;20501;-72
2023/08/13 11:19:13;;;;;;;9.10;3.83;;;24.80;99.90;;;;;;5081836;28;20456;-72
2023/08/13 11:22:01;;;;;;;7.33;1.80;;;24.90;99.90;;;;;;5073606;28;20467;-73
2023/08/13 11:24:47;;;;;;;4.83;2.00;;;24.90;99.90;;;;;;5084822;28;20537;-72
2023/08/13 11:27:36;;;;;;;8.23;2.37;;;25.00;99.90;;;;;;5079401;28;20439;-72
2023/08/13 11:30:21;;;;;;;5.27;2.03;;;25.00;98.90;;;;;;5081323;28;20472;-73
2023/08/13 11:33:06;;;;;;;6.03;2.10;;;25.10;94.70;;;;;;5075443;28;20980;-72
2023/08/13 11:35:53;;;;;;;3.93;1.80;;;25.00;99.90;;;;;;5077899;28;20535;-73
2023/08/13 11:38:40;;;;;;;3.00;1.60;;;24.90;99.10;;;;;;5082304;28;20600;-72
2023/08/13 11:41:25;;;;;;;3.97;1.93;;;24.90;99.90;;;;;;5079450;28;20481;-72
2023/08/13 11:44:11;;;;;;;4.37;1.87;;;24.90;99.90;;;;;;5080337;28;20453;-73
2023/08/13 11:47:00;;;;;;;6.57;2.20;;;25.00;99.90;;;;;;5069840;28;20486;-72
2023/08/13 11:49:45;;;;;;;6.87;2.43;;;25.10;99.90;;;;;;5074356;28;20543;-72
2023/08/13 11:52:31;;;;;;;5.93;3.37;;;25.10;98.60;;;;;;5074643;28;20494;-72
2023/08/13 11:55:18;;;;;;;8.70;2.00;;;25.10;99.90;;;;;;5076605;28;20468;-72
2023/08/13 11:58:04;;;;;;;6.63;1.90;;;25.20;99.90;;;;;;5077393;28;20467;-73
2023/08/13 12:00:50;;;;;;;6.50;2.10;;;25.00;99.90;;;;;;5070321;28;21321;-71
2023/08/13 12:03:36;;;;;;;7.60;2.30;;;24.90;99.90;;;;;;5081333;28;20478;-72
2023/08/13 12:06:22;;;;;;;6.53;2.60;;;25.00;99.90;;;;;;5075787;28;20475;-72
2023/08/13 12:09:08;;;;;;;5.47;3.73;;;25.10;99.90;;;;;;5074230;28;20450;-72
2023/08/13 12:11:56;;;;;;;7.77;2.50;;;25.20;99.90;;;;;;5078467;28;20440;-72
2023/08/13 12:14:45;;;;;;;6.53;2.00;;;25.30;99.90;;;;;;5077369;28;20627;-72
2023/08/13 12:17:31;;;;;;;5.50;2.23;;;25.30;91.80;;;;;;5078610;28;20450;-72
2023/08/13 12:20:17;;;;;;;4.50;2.23;;;25.40;90.80;;;;;;5077053;28;20436;-72
2023/08/13 12:23:02;;;;;;;9.43;2.90;;;25.60;93.30;;;;;;5077956;28;20516;-71
2023/08/13 12:25:48;;;;;;;6.50;1.97;;;25.80;96.30;;;;;;5082129;28;20465;-71
2023/08/13 12:28:34;;;;;;;7.47;2.10;;;25.80;91.50;;;;;;5082738;28;20527;-73
2023/08/13 12:31:20;;;;;;;3.53;2.23;;;25.70;86.20;;;;;;5083973;28;20479;-73
2023/08/13 12:34:06;;;;;;;5.00;2.30;;;25.60;91.70;;;;;;5078012;28;20517;-72
2023/08/13 12:36:51;;;;;;;4.70;2.80;;;25.80;95.00;;;;;;5077076;28;20475;-72
2023/08/13 12:39:38;;;;;;;4.60;2.17;;;25.90;97.60;;;;;;5079943;28;20882;-72
2023/08/13 12:42:24;;;;;;;4.97;2.43;;;26.10;96.40;;;;;;5077229;28;20450;-72
2023/08/13 12:45:11;;;;;;;11.40;2.00;;;26.20;96.60;;;;;;5080365;28;20825;-73
2023/08/13 12:47:57;;;;;;;3.47;2.00;;;26.20;79.40;;;;;;5076445;28;20460;-72
2023/08/13 12:50:44;;;;;;;6.30;2.03;;;26.30;84.60;;;;;;5076889;28;20982;-73
2023/08/13 12:53:30;;;;;;;7.40;2.17;;;26.40;88.80;;;;;;5083895;28;20439;-72
2023/08/13 12:56:16;;;;;;;3.97;2.30;;;26.60;91.70;;;;;;5076728;28;20822;-72
2023/08/13 12:59:04;;;;;;;3.93;1.93;;;26.60;80.80;;;;;;5075767;28;20938;-73
2023/08/13 13:01:51;;;;;;;4.17;1.80;;;26.70;82.70;;;;;;5078604;28;20480;-73
2023/08/13 13:04:39;;;;;;;4.43;2.17;;;26.60;77.90;;;;;;5074959;28;20446;-73
2023/08/13 13:07:27;;;;;;;3.87;2.30;;;26.60;72.70;;;;;;5079024;28;20443;-72
2023/08/13 13:10:13;;;;;;;10.53;2.10;;;26.80;77.10;;;;;;5074451;28;20447;-73
2023/08/13 13:12:58;;;;;;;4.50;1.80;;;27.10;76.50;;;;;;5070468;28;20447;-72
2023/08/13 13:15:44;;;;;;;4.63;2.17;;;27.40;80.20;;;;;;5076069;28;20562;-73
2023/08/13 13:18:31;;;;;;;4.17;1.77;;;27.50;74.50;;;;;;5071887;28;20634;-73
2023/08/13 13:21:17;;;;;;;5.07;1.90;;;27.70;73.00;;;;;;5079961;28;20480;-73
2023/08/13 13:24:02;;;;;;;5.37;2.20;;;27.60;50.20;;;;;;5076072;28;20440;-73
2023/08/13 13:26:48;;;;;;;5.10;2.20;;;27.80;54.20;;;;;;5076027;28;20487;-73
2023/08/13 13:29:33;;;;;;;4.53;1.63;;;27.80;47.20;;;;;;5076979;28;20965;-73
2023/08/13 13:32:19;;;;;;;6.13;2.07;;;27.90;64.20;;;;;;5067986;28;20802;-73
2023/08/13 13:35:07;;;;;;;4.83;2.10;;;27.90;56.30;;;;;;5073251;28;20517;-73
2023/08/13 13:37:52;;;;;;;3.77;2.00;;;28.10;46.50;;;;;;5073576;28;20496;-74
2023/08/13 13:40:38;;;;;;;3.97;1.77;;;28.30;54.70;;;;;;5073215;28;20437;-69
2023/08/13 13:43:23;;;;;;;8.73;1.57;;;28.10;37.80;;;;;;5080329;28;20509;-71
2023/08/13 13:46:08;;;;;;;3.43;2.00;;;28.00;41.40;;;;;;5072360;28;22887;-71
2023/08/13 13:48:54;;;;;;;4.37;2.00;;;28.10;51.10;;;;;;5073392;28;20466;-71
2023/08/13 13:51:42;;;;;;;2.87;1.63;;;28.30;45.90;;;;;;5073691;28;20524;-71
2023/08/13 13:54:27;;;;;;;3.70;1.90;;;28.50;33.90;;;;;;5074319;28;20443;-70
2023/08/13 13:57:13;;;;;;;5.27;2.23;;;28.40;37.60;;;;;;5077261;28;20446;-70
2023/08/13 13:59:58;;;;;;;5.90;2.10;;;28.20;33.20;;;;;;5081596;28;20441;-70
2023/08/13 14:02:44;;;;;;;4.40;2.40;;;27.80;32.70;;;;;;5074441;28;20847;-69
2023/08/13 14:05:29;;;;;;;3.33;1.80;;;27.50;49.20;;;;;;5081858;28;21005;-70
2023/08/13 14:08:16;;;;;;;4.20;1.40;;;27.60;40.80;;;;;;5080205;28;20860;-73
2023/08/13 14:11:01;;;;;;;4.03;1.87;;;27.90;33.60;;;;;;5079122;28;20445;-73
2023/08/13 14:13:47;;;;;;;3.80;1.90;;;28.10;35.90;;;;;;5083288;28;20916;-73
2023/08/13 14:16:33;;;;;;;4.90;2.27;;;28.30;36.50;;;;;;5082326;28;20440;-74
2023/08/13 14:19:18;;;;;;;5.10;2.23;;;28.20;32.00;;;;;;5084201;28;20445;-73
2023/08/13 14:22:04;;;;;;;8.00;2.53;;;28.20;36.50;;;;;;5084184;28;21577;-73
2023/08/13 14:24:51;;;;;;;2.50;1.23;;;28.20;36.30;;;;;;5079925;28;20464;-76